createdAt,value
2018-07-16T00:00:20.853Z,13.97
2018-07-16T00:02:48.121Z,12.82
2018-07-16T00:05:15.584Z,14.53
2018-07-16T00:07:43.112Z,11.75
2018-07-16T00:10:10.393Z,12.28
2018-07-16T00:12:37.773Z,12.27
2018-07-16T00:15:05.118Z,12.85
2018-07-16T00:17:32.610Z,12.28
2018-07-16T00:19:59.992Z,15.98
2018-07-16T00:22:27.272Z,11.80
2018-07-16T00:24:54.598Z,13.73
2018-07-16T00:27:21.868Z,13.08
2018-07-16T00:29:49.103Z,14.78
2018-07-16T00:32:16.356Z,13.20
2018-07-16T00:34:43.763Z,11.68
2018-07-16T00:37:11.040Z,14.15
2018-07-16T00:39:38.359Z,12.75
2018-07-16T00:42:05.697Z,12.90
2018-07-16T00:44:32.956Z,13.95
2018-07-16T00:47:00.232Z,15.43
2018-07-16T00:49:27.593Z,12.70
2018-07-16T00:51:54.844Z,12.60
2018-07-16T00:54:22.182Z,13.70
2018-07-16T00:56:49.585Z,16.00
2018-07-16T00:59:16.806Z,14.10
2018-07-16T01:01:44.059Z,12.03
2018-07-16T01:04:11.309Z,14.87
2018-07-16T01:06:38.606Z,14.63
2018-07-16T01:09:06.225Z,13.10
2018-07-16T01:11:33.579Z,15.97
2018-07-16T01:14:00.876Z,12.58
2018-07-16T01:16:28.240Z,13.60
2018-07-16T01:18:55.556Z,16.10
2018-07-16T01:21:22.876Z,15.70
2018-07-16T01:23:50.128Z,15.90
2018-07-16T01:26:17.457Z,13.03
2018-07-16T01:28:44.656Z,15.10
2018-07-16T01:31:12.752Z,16.17
2018-07-16T01:33:40.036Z,15.70
2018-07-16T01:36:07.617Z,14.20
2018-07-16T01:38:34.996Z,16.10
2018-07-16T01:41:02.455Z,14.25
2018-07-16T01:43:29.956Z,13.53
2018-07-16T01:45:57.160Z,16.10
2018-07-16T01:48:24.420Z,14.60
2018-07-16T01:50:51.704Z,13.85
2018-07-16T01:53:18.973Z,14.35
2018-07-16T01:55:46.228Z,15.60
2018-07-16T01:58:13.506Z,15.32
2018-07-16T02:00:56.504Z,17.50
2018-07-16T02:03:26.854Z,14.18
2018-07-16T02:05:54.186Z,17.98
2018-07-16T02:08:22.589Z,14.30
2018-07-16T02:10:50.017Z,14.90
2018-07-16T02:13:17.407Z,14.63
2018-07-16T02:15:44.756Z,16.20
2018-07-16T02:18:12.883Z,17.32
2018-07-16T02:20:40.184Z,16.67
2018-07-16T02:23:07.531Z,15.63
2018-07-16T02:25:34.801Z,14.35
2018-07-16T02:28:02.113Z,13.85
2018-07-16T02:30:29.490Z,13.75
2018-07-16T02:32:56.844Z,14.85
2018-07-16T02:35:24.139Z,14.00
2018-07-16T02:37:51.406Z,13.98
2018-07-16T02:40:18.668Z,14.25
2018-07-16T02:42:45.916Z,15.03
2018-07-16T02:45:13.168Z,14.60
2018-07-16T02:47:40.512Z,15.60
2018-07-16T02:50:08.149Z,13.60
2018-07-16T02:52:35.475Z,18.10
2018-07-16T02:55:02.989Z,15.68
2018-07-16T02:57:30.248Z,15.55
2018-07-16T02:59:57.519Z,14.37
2018-07-16T03:02:24.848Z,15.98
2018-07-16T03:04:52.088Z,16.80
2018-07-16T03:07:19.357Z,17.40
2018-07-16T03:09:46.599Z,18.23
2018-07-16T03:12:13.852Z,25.15
2018-07-16T03:14:41.151Z,17.80
2018-07-16T03:17:08.556Z,14.58
2018-07-16T03:19:35.844Z,18.55
2018-07-16T03:22:03.264Z,14.63
2018-07-16T03:24:34.605Z,15.18
2018-07-16T03:27:02.199Z,14.57
2018-07-16T03:29:29.455Z,16.43
2018-07-16T03:31:56.753Z,14.83
2018-07-16T03:34:24.164Z,15.85
2018-07-16T03:36:51.416Z,16.20
2018-07-16T03:39:18.687Z,15.73
2018-07-16T03:41:45.964Z,15.28
2018-07-16T03:44:13.253Z,16.50
2018-07-16T03:46:40.576Z,20.60
2018-07-16T03:49:07.970Z,16.65
2018-07-16T03:51:35.261Z,18.87
2018-07-16T03:54:02.682Z,16.35
2018-07-16T03:56:30.049Z,15.58
2018-07-16T03:58:57.368Z,14.90
2018-07-16T04:01:24.772Z,17.57
2018-07-16T04:03:52.061Z,16.85
2018-07-16T04:06:19.361Z,17.27
2018-07-16T04:08:46.693Z,17.83
2018-07-16T04:11:14.006Z,15.32
2018-07-16T04:13:41.344Z,15.10
2018-07-16T04:16:08.733Z,15.83
2018-07-16T04:18:36.004Z,17.67
2018-07-16T04:21:03.360Z,14.05
2018-07-16T04:23:30.683Z,17.52
2018-07-16T04:25:57.996Z,11.60
2018-07-16T04:28:25.473Z,23.80
2018-07-16T04:30:52.769Z,13.62
2018-07-16T04:33:20.033Z,13.98
2018-07-16T04:35:47.607Z,13.35
2018-07-16T04:38:14.911Z,12.00
2018-07-16T04:40:42.244Z,14.00
2018-07-16T04:43:09.593Z,11.80
2018-07-16T04:45:36.941Z,14.07
2018-07-16T04:48:04.302Z,14.60
2018-07-16T04:50:31.642Z,13.90
2018-07-16T04:52:58.956Z,11.33
2018-07-16T04:55:26.262Z,13.40
2018-07-16T04:57:53.688Z,15.73
2018-07-16T05:00:21.252Z,12.03
2018-07-16T05:02:48.500Z,12.37
2018-07-16T05:05:15.821Z,16.17
2018-07-16T05:07:43.348Z,14.80
2018-07-16T05:10:17.376Z,11.63
2018-07-16T05:12:44.817Z,11.08
2018-07-16T05:15:12.117Z,13.65
2018-07-16T05:17:39.428Z,14.60
2018-07-16T05:20:06.744Z,12.60
2018-07-16T05:22:34.036Z,11.30
2018-07-16T05:25:01.336Z,10.13
2018-07-16T05:27:28.640Z,13.40
2018-07-16T05:29:55.940Z,13.97
2018-07-16T05:32:23.419Z,16.27
2018-07-16T05:34:50.646Z,11.80
2018-07-16T05:37:17.998Z,12.40
2018-07-16T05:39:45.250Z,11.90
2018-07-16T05:42:12.559Z,13.23
2018-07-16T05:44:39.873Z,15.27
2018-07-16T05:47:07.228Z,11.80
2018-07-16T05:49:34.464Z,12.90
2018-07-16T05:52:01.732Z,9.90
2018-07-16T05:54:28.959Z,12.07
2018-07-16T05:56:56.501Z,9.67
2018-07-16T05:59:23.795Z,12.23
2018-07-16T06:01:51.189Z,11.48
2018-07-16T06:04:18.491Z,11.60
2018-07-16T06:06:45.748Z,11.13
2018-07-16T06:09:13.060Z,9.65
2018-07-16T06:11:40.406Z,9.23
2018-07-16T06:14:07.704Z,12.40
2018-07-16T06:16:34.979Z,10.80
2018-07-16T06:19:02.267Z,10.25
2018-07-16T06:21:29.548Z,7.80
2018-07-16T06:23:56.836Z,11.20
2018-07-16T06:26:24.377Z,8.40
2018-07-16T06:28:51.644Z,7.60
2018-07-16T06:31:18.890Z,9.50
2018-07-16T06:33:46.186Z,8.48
2018-07-16T06:36:13.448Z,6.73
2018-07-16T06:38:40.790Z,7.05
2018-07-16T06:41:08.430Z,7.85
2018-07-16T06:43:35.513Z,8.07
2018-07-16T06:46:02.788Z,9.05
2018-07-16T06:48:30.420Z,10.13
2018-07-16T06:50:57.708Z,8.85
2018-07-16T06:53:25.041Z,8.43
2018-07-16T06:55:52.334Z,6.03
2018-07-16T06:58:20.647Z,6.40
2018-07-16T07:00:47.968Z,7.83
2018-07-16T07:03:15.584Z,6.05
2018-07-16T07:05:43.006Z,7.62
2018-07-16T07:08:10.614Z,9.10
2018-07-16T07:10:38.125Z,9.40
2018-07-16T07:13:05.479Z,8.40
2018-07-16T07:15:32.785Z,8.58
2018-07-16T07:18:00.186Z,5.30
2018-07-16T07:20:27.392Z,4.17
2018-07-16T07:22:54.645Z,5.47
2018-07-16T07:25:22.093Z,9.17
2018-07-16T07:27:49.415Z,10.80
2018-07-16T07:30:16.756Z,5.67
2018-07-16T07:32:44.036Z,7.90
2018-07-16T07:35:11.406Z,7.20
2018-07-16T07:37:38.571Z,5.53
2018-07-16T09:23:04.792Z,3.70
2018-07-16T09:25:32.058Z,2.72
2018-07-16T09:27:59.330Z,3.98
2018-07-16T09:30:26.636Z,4.97
2018-07-16T09:32:53.885Z,3.47
2018-07-16T09:35:21.100Z,2.77
2018-07-16T09:37:48.359Z,4.65
2018-07-16T09:40:15.669Z,3.70
2018-07-16T09:42:42.940Z,4.35
2018-07-16T09:45:10.265Z,3.17
2018-07-16T09:47:37.769Z,4.67
2018-07-16T09:50:05.129Z,5.22
2018-07-16T09:52:32.456Z,4.22
2018-07-16T09:54:59.738Z,2.80
2018-07-16T09:57:26.985Z,4.20
2018-07-16T09:59:54.293Z,3.20
2018-07-16T10:02:21.579Z,3.80
2018-07-16T10:04:48.852Z,3.05
2018-07-16T10:07:16.365Z,3.30
2018-07-16T10:09:43.629Z,3.80
2018-07-16T10:12:10.978Z,5.00
2018-07-16T10:14:38.475Z,3.22
2018-07-16T10:17:06.533Z,4.00
2018-07-16T10:19:33.903Z,2.60
2018-07-16T10:22:01.220Z,4.30
2018-07-16T10:24:28.790Z,4.40
2018-07-16T10:26:56.132Z,4.90
2018-07-16T10:29:23.596Z,2.90
2018-07-16T10:31:50.900Z,3.80
2018-07-16T10:34:18.140Z,5.67
2018-07-16T10:36:45.469Z,2.80
2018-07-16T10:39:12.752Z,3.10
2018-07-16T10:41:40.109Z,3.97
2018-07-16T10:44:07.456Z,3.50
2018-07-16T10:46:34.717Z,4.53
2018-07-16T10:49:02.033Z,3.33
2018-07-16T10:51:29.326Z,3.90
2018-07-16T10:53:56.676Z,6.00
2018-07-16T10:56:23.981Z,4.40
2018-07-16T10:58:51.482Z,2.87
2018-07-16T11:01:18.810Z,3.53
2018-07-16T11:03:46.058Z,6.40
2018-07-16T11:06:19.123Z,5.83
2018-07-16T11:08:46.379Z,3.33
2018-07-16T11:11:13.689Z,4.40
2018-07-16T11:13:41.073Z,3.27
2018-07-16T11:16:08.344Z,3.50
2018-07-16T11:18:35.597Z,3.10
2018-07-16T11:21:02.975Z,4.90
2018-07-16T11:23:30.289Z,3.95
2018-07-16T11:25:57.549Z,5.97
2018-07-16T11:33:19.247Z,4.67
2018-07-16T11:35:46.730Z,6.63
2018-07-16T11:38:14.693Z,5.37
2018-07-16T11:40:41.968Z,3.83
2018-07-16T11:43:09.372Z,3.80
2018-07-16T11:45:36.758Z,3.52
2018-07-16T12:00:18.648Z,2.30
2018-07-16T12:02:45.928Z,3.20
2018-07-16T12:05:13.623Z,2.33
2018-07-16T12:07:40.938Z,2.77
2018-07-16T12:10:08.215Z,7.22
2018-07-16T12:12:35.503Z,4.45
2018-07-16T12:15:03.100Z,3.98
2018-07-16T12:17:30.382Z,2.85
2018-07-16T12:24:51.187Z,3.50
2018-07-16T12:27:18.448Z,3.67
2018-07-16T12:29:45.897Z,4.00
2018-07-16T12:51:47.600Z,3.30
2018-07-16T12:54:14.908Z,2.10
2018-07-16T12:56:42.647Z,2.12
2018-07-16T12:59:10.078Z,2.90
2018-07-16T13:01:37.369Z,2.30
2018-07-16T13:04:04.674Z,1.90
2018-07-16T13:06:32.014Z,2.60
2018-07-16T13:08:59.268Z,2.30
2018-07-16T13:11:26.568Z,2.50
2018-07-16T13:13:53.842Z,2.47
2018-07-16T13:16:21.099Z,2.47
2018-07-16T13:18:48.303Z,3.33
2018-07-16T13:21:15.795Z,2.10
2018-07-16T13:23:43.033Z,2.20
2018-07-16T13:26:10.780Z,2.00
2018-07-16T13:28:38.156Z,2.10
2018-07-16T13:31:05.517Z,2.22
2018-07-16T13:33:32.745Z,2.27
2018-07-16T13:36:00.031Z,2.35
2018-07-16T13:38:27.281Z,2.20
2018-07-16T13:40:54.589Z,4.10
2018-07-16T13:43:21.984Z,3.15
2018-07-16T13:45:49.236Z,2.75
2018-07-16T13:48:16.504Z,3.90
2018-07-16T13:50:43.898Z,2.45
2018-07-16T13:53:11.248Z,2.13
2018-07-16T13:55:38.515Z,1.92
2018-07-16T13:58:05.801Z,2.05
2018-07-16T14:00:33.228Z,1.75
2018-07-16T14:03:00.720Z,1.67
2018-07-16T14:05:27.972Z,2.40
2018-07-16T14:07:55.326Z,1.95
2018-07-16T14:10:22.585Z,3.30
2018-07-16T14:12:49.800Z,1.92
2018-07-16T14:15:17.129Z,5.20
2018-07-16T14:17:44.482Z,3.27
2018-07-16T14:22:38.874Z,3.02
2018-07-16T14:25:06.126Z,2.20
2018-07-16T14:27:33.415Z,2.40
2018-07-16T14:30:00.669Z,4.15
2018-07-16T14:32:28.475Z,2.10
2018-07-16T14:34:55.718Z,3.17
2018-07-16T14:37:23.110Z,2.20
2018-07-16T14:39:50.423Z,2.77
2018-07-16T14:42:17.589Z,2.95
2018-07-16T14:44:44.890Z,2.77
2018-07-16T14:47:12.372Z,1.90
2018-07-16T14:49:39.638Z,2.80
2018-07-16T14:52:07.021Z,2.30
2018-07-16T14:54:34.392Z,2.02
2018-07-16T14:57:01.638Z,1.93
2018-07-16T15:01:55.680Z,2.58
2018-07-16T15:04:23.042Z,1.52
2018-07-16T15:06:51.013Z,1.60
2018-07-16T15:09:18.253Z,1.60
2018-07-16T15:11:45.673Z,2.35
2018-07-16T15:14:13.059Z,1.87
2018-07-16T15:16:40.328Z,1.32
2018-07-16T15:19:07.648Z,2.05
2018-07-16T15:21:35.399Z,2.10
2018-07-16T15:24:02.602Z,1.72
2018-07-16T15:26:29.920Z,1.95
2018-07-16T15:28:57.281Z,2.00
2018-07-16T15:31:24.661Z,2.00
2018-07-16T15:33:51.949Z,8.45
2018-07-16T15:36:19.210Z,2.00
2018-07-16T15:38:46.452Z,3.47
2018-07-16T15:41:14.059Z,2.10
2018-07-16T15:53:28.951Z,2.15
2018-07-16T15:55:56.256Z,2.40
2018-07-16T15:58:23.608Z,2.65
2018-07-16T16:03:17.670Z,1.90
2018-07-16T16:05:45.146Z,2.10
2018-07-16T16:15:32.893Z,2.30
2018-07-16T16:18:00.243Z,2.60
2018-07-16T16:20:27.492Z,2.45
2018-07-16T16:22:54.766Z,3.37
2018-07-16T16:25:22.118Z,2.75
2018-07-16T16:27:49.402Z,3.67
2018-07-16T16:30:16.829Z,2.67
2018-07-16T16:32:44.258Z,4.87
2018-07-16T16:35:11.401Z,3.15
2018-07-16T16:37:38.891Z,3.70
2018-07-16T16:40:06.272Z,2.22
2018-07-16T16:42:33.642Z,2.30
2018-07-16T16:45:00.920Z,7.22
2018-07-16T16:47:28.249Z,2.50
2018-07-16T16:49:55.662Z,2.25
2018-07-16T16:52:22.963Z,2.80
2018-07-16T16:54:50.304Z,2.50
2018-07-16T16:57:17.555Z,3.70
2018-07-16T16:59:44.970Z,2.98
2018-07-16T17:02:12.249Z,7.12
2018-07-16T17:04:39.592Z,2.75
2018-07-16T17:07:06.980Z,3.75
2018-07-16T17:09:34.254Z,3.67
2018-07-16T17:12:01.497Z,3.25
2018-07-16T17:14:28.861Z,7.67
2018-07-16T17:16:56.145Z,3.37
2018-07-16T17:19:23.574Z,2.33
2018-07-16T17:21:50.892Z,3.87
2018-07-16T17:24:18.148Z,4.53
2018-07-16T17:26:45.420Z,2.50
2018-07-16T17:29:12.701Z,3.30
2018-07-16T17:31:40.024Z,5.28
2018-07-16T17:34:07.397Z,2.70
2018-07-16T17:36:34.731Z,3.15
2018-07-16T17:39:02.245Z,3.67
2018-07-16T17:41:29.524Z,2.90
2018-07-16T17:43:56.892Z,3.30
2018-07-16T17:46:24.133Z,4.70
2018-07-16T17:48:51.388Z,4.17
2018-07-16T17:51:18.773Z,4.00
2018-07-16T17:53:46.359Z,8.10
2018-07-16T17:56:13.625Z,8.50
2018-07-16T17:58:40.948Z,10.30
2018-07-16T18:01:08.425Z,5.57
2018-07-16T18:03:35.566Z,4.57
2018-07-16T18:06:02.837Z,4.70
2018-07-16T18:08:30.076Z,4.30
2018-07-16T18:10:57.368Z,5.47
2018-07-16T18:13:25.025Z,5.78
2018-07-16T18:15:52.259Z,19.20
2018-07-16T18:18:19.577Z,11.63
2018-07-16T18:20:46.927Z,25.65
2018-07-16T18:23:14.300Z,22.13
2018-07-16T18:25:41.750Z,16.97
2018-07-16T18:28:09.112Z,21.93
2018-07-16T18:33:19.069Z,13.47
2018-07-16T18:35:46.741Z,9.38
2018-07-16T18:38:14.196Z,4.78
2018-07-16T18:40:41.484Z,7.80
2018-07-16T18:43:08.822Z,6.12
2018-07-16T18:45:36.117Z,8.63
2018-07-16T18:48:03.448Z,5.60
2018-07-16T18:50:30.677Z,6.87
2018-07-16T18:52:57.994Z,5.20
2018-07-16T18:55:25.330Z,6.12
2018-07-16T18:57:52.756Z,8.10
2018-07-16T19:00:19.976Z,6.10
2018-07-16T19:02:47.237Z,5.33
2018-07-16T19:05:14.473Z,4.90
2018-07-16T19:07:41.776Z,6.30
2018-07-16T19:10:09.080Z,5.47
2018-07-16T19:12:36.476Z,5.95
2018-07-16T19:15:10.046Z,5.97
2018-07-16T19:17:37.509Z,5.33
2018-07-16T19:20:04.948Z,5.90
2018-07-16T19:22:32.356Z,7.57
2018-07-16T19:42:08.457Z,7.60
2018-07-16T19:44:36.029Z,7.23
2018-07-16T19:47:03.324Z,8.33
2018-07-16T19:49:30.702Z,4.60
2018-07-16T19:51:58.460Z,10.73
2018-07-16T19:54:26.880Z,7.83
2018-07-16T19:56:54.157Z,6.97
2018-07-16T19:59:21.398Z,6.80
2018-07-16T20:01:48.632Z,7.50
2018-07-16T20:04:16.362Z,9.27
2018-07-16T20:26:23.382Z,8.93
2018-07-16T20:28:50.736Z,8.70
2018-07-16T20:31:18.260Z,6.87
2018-07-16T20:33:45.748Z,6.75
2018-07-16T20:36:13.031Z,8.38
2018-07-16T20:38:40.857Z,10.48
2018-07-16T20:41:08.728Z,6.00
2018-07-16T20:43:35.998Z,7.17
2018-07-16T20:46:03.253Z,9.23
2018-07-16T20:48:30.518Z,8.13
2018-07-16T20:50:57.762Z,11.55
2018-07-16T20:53:25.011Z,10.30
2018-07-16T20:55:52.413Z,11.70
2018-07-16T20:58:19.699Z,8.50
2018-07-16T21:00:46.949Z,6.90
2018-07-16T21:03:14.406Z,7.37
2018-07-16T21:05:41.704Z,8.25
2018-07-16T21:08:08.943Z,8.35
2018-07-16T21:10:36.262Z,10.20
2018-07-16T21:13:03.495Z,7.00
2018-07-16T21:15:30.777Z,8.33
2018-07-16T21:17:58.017Z,8.18
2018-07-16T21:20:25.252Z,11.10
2018-07-16T21:22:52.501Z,6.90
2018-07-16T21:25:19.753Z,7.83
2018-07-16T21:27:47.153Z,10.53
2018-07-16T21:30:14.426Z,8.33
2018-07-16T21:32:41.865Z,6.92
2018-07-16T21:35:09.136Z,7.92
2018-07-16T21:37:36.380Z,10.95
2018-07-16T21:40:03.682Z,10.32
2018-07-16T21:42:31.071Z,12.57
2018-07-16T21:44:58.349Z,8.10
2018-07-16T21:47:25.600Z,8.90
2018-07-16T21:49:53.681Z,10.40
2018-07-16T21:52:20.969Z,10.38
2018-07-16T21:54:48.183Z,11.80
2018-07-16T21:57:15.454Z,13.03
2018-07-16T21:59:42.725Z,12.33
2018-07-16T22:02:11.830Z,12.98
2018-07-16T22:04:49.053Z,14.47
2018-07-16T22:07:16.359Z,11.35
2018-07-16T22:09:43.722Z,11.35
2018-07-16T22:12:11.049Z,10.93
2018-07-16T22:14:38.442Z,10.93
2018-07-16T22:17:05.730Z,11.08
2018-07-16T22:19:32.989Z,10.00
2018-07-16T22:22:00.275Z,10.95
2018-07-16T22:24:27.544Z,13.43
2018-07-16T22:26:54.798Z,10.30
2018-07-16T22:29:22.363Z,9.98
2018-07-16T22:31:49.696Z,13.00
2018-07-16T22:34:16.952Z,11.48
2018-07-16T22:36:44.191Z,14.18
2018-07-16T22:39:11.553Z,11.73
2018-07-16T22:41:39.173Z,15.05
2018-07-16T22:44:06.444Z,10.48
2018-07-16T22:46:33.656Z,10.18
2018-07-16T22:49:00.908Z,11.78
2018-07-16T22:51:28.139Z,13.23
2018-07-16T22:53:55.368Z,10.72
2018-07-16T22:56:22.640Z,11.78
2018-07-16T22:58:49.863Z,9.73
2018-07-16T23:03:12.489Z,10.47
2018-07-16T23:05:39.777Z,10.95
2018-07-16T23:08:07.074Z,10.60
2018-07-16T23:10:34.359Z,9.63
2018-07-16T23:13:01.585Z,11.65
2018-07-16T23:15:28.901Z,12.88
2018-07-16T23:17:56.183Z,12.60
2018-07-16T23:20:23.448Z,9.73
2018-07-16T23:22:52.228Z,10.15
2018-07-16T23:25:20.301Z,12.63
2018-07-16T23:27:47.817Z,12.78
2018-07-16T23:30:15.073Z,11.43
2018-07-16T23:32:42.572Z,11.68
2018-07-16T23:35:09.909Z,10.60
2018-07-16T23:37:37.644Z,10.07
2018-07-16T23:40:05.254Z,13.03
2018-07-16T23:42:32.505Z,11.90
2018-07-16T23:44:59.976Z,11.88
2018-07-16T23:47:27.260Z,12.05
2018-07-16T23:49:54.524Z,11.23
2018-07-16T23:52:21.824Z,12.85
2018-07-16T23:54:49.063Z,13.20
2018-07-16T23:57:16.319Z,11.87
2018-07-16T23:59:43.602Z,11.78
